Time;durP1;ratioP1;P1;durP2;ratioP2;P2;SDS_P1;SDS_P2;PMS_P1;PMS_P2;Temp;Humidity;BMP_temperature;BMP_pressure;BME280_temperature;BME280_humidity;BME280_pressure;Samples;Min_cycle;Max_cycle;Signal;HPM_P1;HPM_P2
2022/05/06 00:02:00;;;;;;;8.23;4.70;;;10.90;78.60;;;;;;5032865;28;20954;-60
2022/05/06 00:04:27;;;;;;;5.60;4.77;;;10.90;79.20;;;;;;5033263;28;20481;-60
2022/05/06 00:06:56;;;;;;;10.02;8.30;;;10.90;79.60;;;;;;5034826;28;20967;-60
2022/05/06 00:09:23;;;;;;;6.53;5.20;;;10.80;80.00;;;;;;5034610;28;20225;-59
2022/05/06 00:11:51;;;;;;;7.88;5.07;;;10.80;80.60;;;;;;5034364;28;20228;-59
2022/05/06 00:14:18;;;;;;;6.25;5.20;;;10.80;81.10;;;;;;5033678;28;20257;-59
2022/05/06 00:16:46;;;;;;;11.73;6.38;;;10.70;81.50;;;;;;5034022;28;20204;-60
2022/05/06 00:19:13;;;;;;;7.20;5.70;;;10.70;81.80;;;;;;5033666;28;20675;-60
2022/05/06 00:21:40;;;;;;;8.40;6.37;;;10.70;82.20;;;;;;5032977;28;20446;-60
2022/05/06 00:24:09;;;;;;;6.40;5.80;;;10.60;82.60;;;;;;5032869;28;20456;-59
2022/05/06 00:26:36;;;;;;;7.53;5.33;;;10.60;83.20;;;;;;5037477;28;20449;-60
2022/05/06 00:29:03;;;;;;;10.53;5.03;;;10.70;83.30;;;;;;5036819;28;20941;-59
2022/05/06 00:31:30;;;;;;;6.53;5.80;;;10.70;83.50;;;;;;5036976;28;20452;-59
2022/05/06 00:33:57;;;;;;;7.38;6.65;;;10.70;83.80;;;;;;5036898;28;20510;-61
2022/05/06 00:36:24;;;;;;;10.00;7.05;;;10.70;84.20;;;;;;5037036;28;20186;-60
2022/05/06 00:38:51;;;;;;;7.00;6.28;;;10.60;84.40;;;;;;5036536;28;20218;-59
2022/05/06 00:41:20;;;;;;;7.20;6.03;;;10.70;84.80;;;;;;5036753;28;20240;-59
2022/05/06 00:43:47;;;;;;;7.60;5.87;;;10.60;85.00;;;;;;5036645;28;20461;-59
2022/05/06 00:46:15;;;;;;;6.83;5.93;;;10.70;85.10;;;;;;5036731;28;20487;-60
2022/05/06 00:48:45;;;;;;;7.50;6.10;;;10.60;84.90;;;;;;5036535;28;20490;-59
2022/05/06 00:51:13;;;;;;;8.18;5.80;;;10.60;85.30;;;;;;5037359;28;20202;-60
2022/05/06 00:53:43;;;;;;;12.27;6.78;;;10.60;85.70;;;;;;5037418;28;20584;-60
2022/05/06 00:56:11;;;;;;;6.80;5.90;;;10.50;86.10;;;;;;5037345;28;20229;-60
2022/05/06 00:58:40;;;;;;;8.30;6.40;;;10.50;86.60;;;;;;5036494;28;20692;-60
2022/05/06 01:01:07;;;;;;;10.05;6.80;;;10.50;87.10;;;;;;5038376;28;20234;-60
2022/05/06 01:03:34;;;;;;;11.33;7.10;;;10.40;87.50;;;;;;5037201;28;20245;-60
2022/05/06 01:06:05;;;;;;;7.55;6.13;;;10.40;87.90;;;;;;5037391;28;20462;-60
2022/05/06 01:08:32;;;;;;;8.15;6.70;;;10.40;88.30;;;;;;5037254;28;20190;-59
2022/05/06 01:11:00;;;;;;;6.83;6.23;;;10.30;88.60;;;;;;5036992;28;20657;-59
2022/05/06 01:13:28;;;;;;;9.70;6.60;;;10.30;89.00;;;;;;5036573;28;20442;-58
2022/05/06 01:15:57;;;;;;;11.95;7.07;;;10.30;89.50;;;;;;5036279;28;20480;-60
2022/05/06 01:18:24;;;;;;;9.70;7.13;;;10.30;89.80;;;;;;5036423;28;20202;-60
2022/05/06 01:20:52;;;;;;;8.15;6.70;;;10.20;90.00;;;;;;5036723;28;20215;-60
2022/05/06 01:23:23;;;;;;;10.10;5.90;;;10.20;90.30;;;;;;5036827;28;20206;-59
2022/05/06 01:25:51;;;;;;;8.48;6.53;;;10.10;90.40;;;;;;5037216;28;20671;-60
2022/05/06 01:28:22;;;;;;;10.25;7.60;;;10.10;90.70;;;;;;5036858;28;20232;-60
2022/05/06 01:30:49;;;;;;;8.90;6.20;;;10.10;91.00;;;;;;5036948;28;20193;-60
2022/05/06 01:33:18;;;;;;;8.73;5.68;;;10.00;91.20;;;;;;5036628;28;20213;-60
2022/05/06 01:35:47;;;;;;;7.55;6.13;;;10.00;91.50;;;;;;5036290;28;20267;-60
2022/05/06 01:38:19;;;;;;;8.77;7.13;;;9.90;92.10;;;;;;5035835;28;20199;-61
2022/05/06 01:40:53;;;;;;;6.95;5.97;;;9.90;92.40;;;;;;5036270;28;20262;-60
2022/05/06 01:43:23;;;;;;;6.95;6.05;;;9.90;92.80;;;;;;5035973;28;20191;-60
2022/05/06 01:45:55;;;;;;;7.60;6.80;;;9.90;92.90;;;;;;5035488;28;20198;-60
2022/05/06 01:48:25;;;;;;;9.65;7.00;;;9.90;93.10;;;;;;5035775;28;20185;-60
2022/05/06 01:50:54;;;;;;;7.22;6.53;;;9.90;93.20;;;;;;5036807;28;20210;-60
2022/05/06 01:53:21;;;;;;;8.85;5.80;;;9.80;93.30;;;;;;5036941;28;20236;-61
2022/05/06 01:55:50;;;;;;;7.43;6.00;;;9.80;93.40;;;;;;5035696;28;20723;-60
2022/05/06 01:58:17;;;;;;;11.02;7.63;;;9.80;93.60;;;;;;5035968;28;20206;-60
2022/05/06 02:00:44;;;;;;;12.68;6.45;;;9.80;93.80;;;;;;5035467;28;20693;-59
2022/05/06 02:05:16;;;;;;;9.52;6.65;;;9.80;94.00;;;;;;5035697;28;20206;-60
2022/05/06 02:05:57;;;;;;;9.25;7.00;;;9.80;94.10;;;;;;5035616;28;20285;-60
2022/05/06 02:08:24;;;;;;;7.75;6.13;;;9.80;94.20;;;;;;5035738;28;20204;-60
2022/05/06 02:10:53;;;;;;;7.60;6.45;;;9.80;94.30;;;;;;5035354;28;20202;-60
2022/05/06 02:13:20;;;;;;;10.00;6.45;;;9.80;94.40;;;;;;5035334;28;20691;-60
2022/05/06 02:15:47;;;;;;;8.80;6.55;;;9.70;94.60;;;;;;5035518;28;20225;-60
2022/05/06 02:18:14;;;;;;;8.55;6.32;;;9.80;94.90;;;;;;5036092;28;20215;-59
2022/05/06 02:20:41;;;;;;;8.40;6.45;;;9.80;94.90;;;;;;5035556;28;20209;-60
2022/05/06 02:23:08;;;;;;;6.82;6.03;;;9.80;95.10;;;;;;5035249;28;20199;-60
2022/05/06 02:25:36;;;;;;;6.25;5.40;;;9.80;95.30;;;;;;5035238;28;20253;-60
2022/05/06 02:28:07;;;;;;;7.60;5.95;;;9.90;95.70;;;;;;5035470;28;20320;-59
2022/05/06 02:33:23;;;;;;;6.43;5.82;;;10.00;96.10;;;;;;5034952;28;20310;-59
2022/05/06 02:35:51;;;;;;;6.45;5.25;;;10.00;96.60;;;;;;5034507;28;20258;-60
2022/05/06 02:38:18;;;;;;;7.85;5.95;;;10.00;96.90;;;;;;5034480;28;20702;-60
2022/05/06 02:40:45;;;;;;;7.93;6.60;;;10.00;97.40;;;;;;5034514;28;20203;-60
2022/05/06 02:43:13;;;;;;;7.53;6.18;;;10.00;97.80;;;;;;5035020;28;20216;-60
2022/05/06 02:45:41;;;;;;;8.70;6.43;;;10.00;98.40;;;;;;5034885;28;20237;-60
2022/05/06 02:48:08;;;;;;;7.15;6.45;;;10.00;98.90;;;;;;5033826;28;20618;-59
2022/05/06 02:50:35;;;;;;;7.50;6.80;;;10.00;99.40;;;;;;5034618;28;20583;-60
2022/05/06 02:53:03;;;;;;;7.63;6.25;;;10.00;99.90;;;;;;5034282;28;20705;-60
2022/05/06 02:55:30;;;;;;;8.05;6.18;;;10.10;99.90;;;;;;5034319;28;20224;-60
2022/05/06 02:57:57;;;;;;;9.27;6.60;;;10.10;99.90;;;;;;5035560;28;20220;-60
2022/05/06 03:00:27;;;;;;;8.18;6.25;;;10.10;99.90;;;;;;5036087;28;20235;-60
2022/05/06 03:02:55;;;;;;;9.15;6.97;;;10.10;99.90;;;;;;5036527;28;20198;-60
2022/05/06 03:05:22;;;;;;;8.15;6.70;;;10.10;99.90;;;;;;5035552;28;20243;-60
2022/05/06 03:07:49;;;;;;;8.43;6.72;;;10.10;99.90;;;;;;5036505;28;20207;-59
2022/05/06 03:10:16;;;;;;;7.50;6.35;;;10.10;99.90;;;;;;5035816;28;20289;-60
2022/05/06 03:12:46;;;;;;;6.80;6.00;;;10.10;99.90;;;;;;5037215;28;20547;-60
2022/05/06 03:15:14;;;;;;;10.68;6.63;;;10.10;99.90;;;;;;5037520;28;20244;-60
2022/05/06 03:17:42;;;;;;;7.53;5.80;;;10.10;99.90;;;;;;5037004;28;20198;-60
2022/05/06 03:20:10;;;;;;;10.45;6.70;;;10.00;99.90;;;;;;5037232;28;20208;-61
2022/05/06 03:22:41;;;;;;;9.15;6.60;;;10.00;99.90;;;;;;5036836;28;20211;-60
2022/05/06 03:25:10;;;;;;;7.75;6.90;;;9.90;99.90;;;;;;5035612;28;20254;-60
2022/05/06 03:30:22;;;;;;;7.53;6.82;;;9.90;99.90;;;;;;5035707;28;20187;-59
2022/05/06 03:32:51;;;;;;;8.40;6.95;;;9.80;99.90;;;;;;5034571;28;20210;-59
2022/05/06 03:35:18;;;;;;;7.30;6.45;;;9.80;99.90;;;;;;5035162;28;20257;-59
2022/05/06 03:37:45;;;;;;;7.18;6.47;;;9.80;99.90;;;;;;5033832;28;20207;-59
2022/05/06 03:40:14;;;;;;;8.85;7.10;;;9.80;99.90;;;;;;5033968;28;20620;-60
2022/05/06 03:42:42;;;;;;;11.48;7.07;;;9.70;99.90;;;;;;5033521;28;20213;-60
2022/05/06 03:45:10;;;;;;;6.93;6.22;;;9.70;99.90;;;;;;5033698;28;20560;-59
2022/05/06 03:47:37;;;;;;;6.70;6.00;;;9.70;99.90;;;;;;5033762;28;20205;-60
2022/05/06 03:52:51;;;;;;;10.20;7.10;;;9.70;99.90;;;;;;5033560;28;20191;-60
2022/05/06 03:55:18;;;;;;;8.18;6.22;;;9.70;99.90;;;;;;5033514;28;20229;-60
2022/05/06 03:57:46;;;;;;;6.80;6.20;;;9.60;99.90;;;;;;5033325;28;20591;-60
2022/05/06 04:00:15;;;;;;;7.55;6.57;;;9.60;99.90;;;;;;5032696;28;20226;-57
2022/05/06 04:02:42;;;;;;;9.38;7.28;;;9.70;99.90;;;;;;5032990;28;20208;-59
2022/05/06 04:05:11;;;;;;;10.77;7.18;;;9.60;99.90;;;;;;5032866;28;20710;-59
2022/05/06 04:09:44;;;;;;;9.88;7.28;;;9.60;99.90;;;;;;5133833;27;20675;-60
2022/05/06 04:12:12;;;;;;;8.25;7.05;;;9.60;99.90;;;;;;5132265;28;20208;-60
2022/05/06 04:14:39;;;;;;;8.88;7.65;;;9.60;99.90;;;;;;5131771;28;20223;-60
2022/05/06 04:17:06;;;;;;;11.27;7.25;;;9.70;99.90;;;;;;5131636;27;20197;-61
2022/05/06 04:19:33;;;;;;;11.90;7.40;;;9.70;99.90;;;;;;5131820;27;20201;-59
2022/05/06 04:24:49;;;;;;;11.60;7.47;;;9.70;99.90;;;;;;5131819;28;20263;-60
2022/05/06 04:27:16;;;;;;;11.45;7.53;;;9.70;99.90;;;;;;5132045;28;20225;-59
2022/05/06 04:29:43;;;;;;;11.25;7.65;;;9.70;99.90;;;;;;5131531;27;20691;-59
2022/05/06 04:32:10;;;;;;;10.65;8.13;;;9.80;99.90;;;;;;5131611;27;20199;-59
2022/05/06 04:34:37;;;;;;;10.00;8.13;;;9.80;99.90;;;;;;5132954;28;20252;-60
2022/05/06 04:37:06;;;;;;;10.10;8.23;;;9.80;99.90;;;;;;5133674;28;20200;-60
2022/05/06 04:39:33;;;;;;;8.90;7.80;;;9.90;99.90;;;;;;5133509;28;20209;-60
2022/05/06 04:42:02;;;;;;;11.30;8.23;;;10.00;99.90;;;;;;5133333;28;20203;-61
2022/05/06 04:44:29;;;;;;;8.40;7.30;;;10.30;99.90;;;;;;5133025;28;20534;-60
2022/05/06 04:46:56;;;;;;;16.23;7.70;;;10.60;99.90;;;;;;5132801;28;20440;-61
2022/05/06 04:49:23;;;;;;;8.40;6.90;;;11.00;99.90;;;;;;5132644;27;20477;-60
2022/05/06 04:51:51;;;;;;;9.50;6.10;;;11.40;99.90;;;;;;5131957;28;20813;-60
2022/05/06 04:54:18;;;;;;;6.87;6.13;;;11.90;99.90;;;;;;5139516;28;20762;-61
2022/05/06 04:56:45;;;;;;;9.83;6.67;;;12.30;99.90;;;;;;5136273;28;20436;-60
2022/05/06 04:59:13;;;;;;;8.60;6.40;;;12.60;99.90;;;;;;5131494;27;20436;-60
2022/05/06 05:01:40;;;;;;;7.40;6.60;;;12.80;99.90;;;;;;5131461;28;20440;-60
2022/05/06 05:04:07;;;;;;;7.87;7.07;;;12.90;99.90;;;;;;5130898;28;20976;-61
2022/05/06 05:06:35;;;;;;;11.60;6.50;;;13.00;99.90;;;;;;5131229;27;20448;-61
2022/05/06 05:09:02;;;;;;;6.87;6.17;;;13.20;99.90;;;;;;5130516;27;20472;-60
2022/05/06 05:11:29;;;;;;;6.67;6.00;;;13.30;99.60;;;;;;5130673;27;20440;-60
2022/05/06 05:13:56;;;;;;;8.00;6.53;;;13.50;98.80;;;;;;5130382;28;20551;-59
2022/05/06 05:16:25;;;;;;;10.07;6.10;;;13.60;98.10;;;;;;5130541;28;20472;-59
2022/05/06 05:18:52;;;;;;;6.67;5.93;;;13.80;96.90;;;;;;5129587;28;20889;-60
2022/05/06 05:21:19;;;;;;;8.10;6.23;;;13.90;96.10;;;;;;5116009;28;20543;-60
2022/05/06 05:23:47;;;;;;;8.47;6.83;;;14.10;95.10;;;;;;5117738;28;20489;-59
2022/05/06 05:26:14;;;;;;;8.20;6.20;;;14.20;94.00;;;;;;5118386;28;20949;-58
2022/05/06 05:28:41;;;;;;;7.77;6.20;;;14.30;93.10;;;;;;5117658;28;20469;-60
2022/05/06 05:31:08;;;;;;;8.23;6.27;;;14.40;92.20;;;;;;5119500;28;20456;-59
2022/05/06 05:33:38;;;;;;;9.57;6.83;;;14.30;91.60;;;;;;5117082;28;20467;-59
2022/05/06 05:36:05;;;;;;;6.90;6.30;;;14.30;91.20;;;;;;5117284;28;20456;-60
2022/05/06 05:38:32;;;;;;;13.93;6.30;;;14.40;90.90;;;;;;5117843;28;20434;-60
2022/05/06 05:41:00;;;;;;;6.90;6.20;;;14.40;90.50;;;;;;5117396;28;20449;-60
2022/05/06 05:48:57;;;;;;;10.27;6.70;;;14.70;88.10;;;;;;5116725;28;20464;-61
2022/05/06 05:51:24;;;;;;;7.87;7.10;;;14.70;86.60;;;;;;5116526;28;20437;-59
2022/05/06 05:53:51;;;;;;;12.30;7.37;;;14.70;85.70;;;;;;5116479;28;20465;-60
2022/05/06 05:56:18;;;;;;;8.60;6.83;;;14.70;85.00;;;;;;5116936;28;20441;-60
2022/05/06 05:58:45;;;;;;;9.27;8.30;;;14.60;84.40;;;;;;5114399;28;20535;-60
2022/05/06 06:01:14;;;;;;;10.87;8.03;;;14.70;83.50;;;;;;5115792;28;20461;-61
2022/05/06 06:03:41;;;;;;;13.40;7.10;;;14.70;82.10;;;;;;5115670;28;20469;-60
2022/05/06 06:06:09;;;;;;;10.13;8.30;;;14.70;80.80;;;;;;5117037;28;20434;-61
2022/05/06 06:08:36;;;;;;;9.00;8.10;;;14.60;79.60;;;;;;5115477;28;20482;-61
2022/05/06 06:11:04;;;;;;;11.20;8.83;;;14.60;78.00;;;;;;5118883;28;20448;-61
2022/05/06 06:13:31;;;;;;;11.53;8.80;;;14.50;77.10;;;;;;5115790;28;21018;-60
2022/05/06 06:15:58;;;;;;;14.23;8.43;;;14.50;77.30;;;;;;5116443;28;20441;-61
2022/05/06 06:18:27;;;;;;;10.57;8.67;;;14.40;76.20;;;;;;5122240;28;20445;-62
2022/05/06 06:20:54;;;;;;;19.17;8.73;;;14.40;75.80;;;;;;5124249;28;20452;-61
2022/05/06 06:23:22;;;;;;;12.13;8.73;;;14.50;75.40;;;;;;5123337;27;20449;-61
2022/05/06 06:25:49;;;;;;;11.07;9.23;;;14.50;74.90;;;;;;5119307;28;20456;-61
2022/05/06 06:28:17;;;;;;;12.53;8.07;;;14.50;74.70;;;;;;5119094;28;20583;-60
2022/05/06 06:30:44;;;;;;;12.63;8.83;;;14.50;74.50;;;;;;5116698;28;20449;-61
2022/05/06 06:33:11;;;;;;;10.57;8.53;;;14.70;74.10;;;;;;5118616;28;20442;-61
2022/05/06 06:35:38;;;;;;;11.40;7.80;;;14.80;73.50;;;;;;5117747;28;20465;-61
2022/05/06 06:38:06;;;;;;;10.17;9.07;;;14.90;73.00;;;;;;5115906;28;20450;-61
2022/05/06 06:40:34;;;;;;;14.57;9.33;;;15.00;72.00;;;;;;5116322;28;20452;-61
2022/05/06 06:43:02;;;;;;;12.50;9.23;;;15.20;71.40;;;;;;5116117;28;20471;-61
2022/05/06 06:45:29;;;;;;;22.03;9.53;;;15.30;70.40;;;;;;5114441;28;20457;-59
2022/05/06 06:47:57;;;;;;;19.27;9.37;;;15.40;69.60;;;;;;5116203;28;20489;-62
2022/05/06 06:50:25;;;;;;;10.43;7.90;;;15.50;68.90;;;;;;5115789;28;21015;-60
2022/05/06 06:52:52;;;;;;;10.30;8.73;;;15.60;68.00;;;;;;5117267;28;20471;-62
2022/05/06 06:55:20;;;;;;;10.13;8.10;;;15.70;67.50;;;;;;5117450;28;20468;-61
2022/05/06 06:57:50;;;;;;;9.80;7.33;;;15.80;66.80;;;;;;5118007;28;20925;-61
2022/05/06 07:00:18;;;;;;;9.00;8.10;;;15.80;66.00;;;;;;5117866;28;20512;-62
2022/05/06 07:02:45;;;;;;;8.60;7.57;;;16.00;65.50;;;;;;5120127;28;20922;-61
2022/05/06 07:05:12;;;;;;;8.73;7.37;;;16.10;64.80;;;;;;5117733;28;20466;-62
2022/05/06 07:13:21;;;;;;;8.30;7.40;;;16.40;63.10;;;;;;5116702;28;20940;-63
2022/05/06 07:15:48;;;;;;;8.33;7.17;;;16.50;62.40;;;;;;5116528;28;20437;-62
2022/05/06 07:18:15;;;;;;;10.90;7.77;;;16.60;61.70;;;;;;5118033;28;20433;-63
2022/05/06 07:20:43;;;;;;;11.47;7.63;;;16.60;61.00;;;;;;5115741;28;20854;-62
2022/05/06 07:23:10;;;;;;;9.40;7.30;;;16.70;60.50;;;;;;5116267;28;20433;-61
2022/05/06 07:25:37;;;;;;;8.00;7.07;;;16.80;60.00;;;;;;5115670;28;20485;-62
2022/05/06 07:28:06;;;;;;;9.57;7.30;;;16.90;59.50;;;;;;5117989;28;20846;-61
2022/05/06 07:30:34;;;;;;;10.00;6.90;;;16.90;59.10;;;;;;5115563;28;20999;-61
2022/05/06 07:33:01;;;;;;;5.97;5.27;;;17.00;58.70;;;;;;5115014;28;20447;-62
2022/05/06 07:35:29;;;;;;;8.13;5.20;;;17.20;58.30;;;;;;5114094;28;20457;-62
2022/05/06 07:37:56;;;;;;;7.97;5.57;;;17.20;57.50;;;;;;5113761;28;20445;-62
2022/05/06 07:40:23;;;;;;;8.07;5.53;;;17.30;57.00;;;;;;5123384;28;20441;-61
2022/05/06 07:42:51;;;;;;;11.23;5.60;;;17.40;56.50;;;;;;5115185;28;20445;-62
2022/05/06 07:45:19;;;;;;;6.63;4.70;;;17.50;56.00;;;;;;5114127;28;20477;-62
2022/05/06 07:47:47;;;;;;;9.73;5.43;;;17.60;55.30;;;;;;5113990;28;20444;-61
2022/05/06 07:50:14;;;;;;;7.73;4.50;;;17.60;54.80;;;;;;5114776;28;20477;-63
2022/05/06 07:52:41;;;;;;;7.53;5.47;;;17.70;54.40;;;;;;5114789;28;20560;-61
2022/05/06 07:55:10;;;;;;;5.17;4.10;;;17.70;54.00;;;;;;5119728;28;20465;-62
2022/05/06 07:57:37;;;;;;;7.17;4.47;;;17.60;53.70;;;;;;5121635;28;20491;-62
2022/05/06 08:00:05;;;;;;;4.43;3.77;;;17.60;53.50;;;;;;5116155;28;20437;-63
2022/05/06 08:05:18;;;;;;;4.87;3.90;;;17.80;52.70;;;;;;5115477;28;20497;-62
2022/05/06 08:07:45;;;;;;;5.70;4.40;;;17.90;52.30;;;;;;5114151;28;20465;-62
2022/05/06 08:10:12;;;;;;;11.30;4.23;;;18.00;52.10;;;;;;5114301;28;20543;-62
2022/05/06 08:12:39;;;;;;;7.30;4.63;;;18.30;52.00;;;;;;5114651;28;20441;-62
2022/05/06 08:15:07;;;;;;;8.83;4.80;;;18.40;51.40;;;;;;5113975;28;20539;-61
2022/05/06 08:17:34;;;;;;;4.30;3.90;;;18.40;50.90;;;;;;5115178;28;20461;-61
2022/05/06 08:20:01;;;;;;;4.73;3.67;;;18.50;51.00;;;;;;5115223;28;20433;-62
2022/05/06 08:22:30;;;;;;;3.53;3.23;;;18.50;49.90;;;;;;5114046;28;20448;-61
2022/05/06 08:24:57;;;;;;;3.90;2.90;;;18.50;49.50;;;;;;5115085;28;20492;-62
2022/05/06 08:27:24;;;;;;;4.30;2.93;;;18.40;49.40;;;;;;5116342;28;20995;-61
2022/05/06 08:29:51;;;;;;;4.40;2.93;;;18.60;49.20;;;;;;5115391;28;21037;-62
2022/05/06 08:32:19;;;;;;;4.30;2.37;;;18.70;48.80;;;;;;5113134;28;20449;-63
2022/05/06 08:34:47;;;;;;;3.80;2.90;;;18.80;48.20;;;;;;5115396;28;20469;-65
2022/05/06 08:37:14;;;;;;;3.50;3.20;;;19.00;47.90;;;;;;5115171;28;20937;-65
2022/05/06 08:39:42;;;;;;;7.10;3.53;;;19.10;47.50;;;;;;5114594;28;20512;-66
2022/05/06 08:42:13;;;;;;;5.60;3.70;;;19.10;47.00;;;;;;5113479;28;20456;-64
2022/05/06 08:52:54;;;;;;;5.00;3.67;;;19.20;45.80;;;;;;5103934;28;20406;-58
2022/05/06 08:55:22;;;;;;;5.47;3.53;;;19.30;45.40;;;;;;5108331;28;20465;-58
2022/05/06 08:57:49;;;;;;;3.97;3.47;;;19.50;45.20;;;;;;5117478;28;20959;-58
2022/05/06 09:00:17;;;;;;;4.63;3.77;;;19.60;45.00;;;;;;5099085;28;20528;-58
2022/05/06 09:02:44;;;;;;;8.10;4.20;;;19.80;44.90;;;;;;5103569;28;20445;-58
2022/05/06 09:05:16;;;;;;;3.90;3.37;;;19.90;44.60;;;;;;5117074;28;20476;-59
2022/05/06 09:07:54;;;;;;;4.10;3.70;;;20.10;44.30;;;;;;5117015;28;20492;-58
2022/05/06 09:10:22;;;;;;;6.17;3.90;;;20.20;43.60;;;;;;5115802;28;21022;-59
2022/05/06 09:12:55;;;;;;;4.20;3.60;;;20.30;43.20;;;;;;5116669;28;20464;-59
2022/05/06 09:18:08;;;;;;;5.60;3.77;;;20.20;42.80;;;;;;5116942;28;20405;-58
2022/05/06 09:20:35;;;;;;;6.50;4.40;;;20.20;42.90;;;;;;5115273;28;20503;-59
2022/05/06 09:23:24;;;;;;;4.57;4.17;;;20.30;42.90;;;;;;5116304;28;20787;-59
2022/05/06 09:25:53;;;;;;;5.57;4.30;;;20.50;42.70;;;;;;5117191;28;20426;-58
2022/05/06 09:28:26;;;;;;;5.33;4.00;;;20.60;42.40;;;;;;5124715;28;20562;-59
2022/05/06 09:31:00;;;;;;;4.80;3.70;;;20.80;42.20;;;;;;5130116;28;20477;-59
2022/05/06 09:33:29;;;;;;;4.80;3.90;;;20.80;41.80;;;;;;5131853;28;20436;-60
2022/05/06 09:35:57;;;;;;;6.23;3.47;;;20.80;41.30;;;;;;5129043;28;20545;-61
2022/05/06 09:38:29;;;;;;;6.50;3.30;;;20.70;40.90;;;;;;5131086;28;20445;-60
2022/05/06 09:40:58;;;;;;;16.43;5.33;;;20.50;40.90;;;;;;5132186;28;20418;-62
2022/05/06 09:43:27;;;;;;;6.67;3.93;;;20.50;41.20;;;;;;5132188;28;20441;-59
2022/05/06 09:45:54;;;;;;;4.03;3.63;;;20.60;40.90;;;;;;5131231;28;20449;-61
2022/05/06 09:48:21;;;;;;;8.23;4.67;;;20.80;40.60;;;;;;5132322;28;20452;-61
2022/05/06 09:50:49;;;;;;;5.73;3.73;;;20.90;40.40;;;;;;5129018;28;20485;-61
2022/05/06 09:53:17;;;;;;;6.27;4.13;;;21.00;40.30;;;;;;5124735;28;20461;-60
2022/05/06 09:55:49;;;;;;;4.63;3.40;;;21.00;40.10;;;;;;5121308;28;20849;-61
2022/05/06 09:58:18;;;;;;;6.57;4.23;;;21.10;39.90;;;;;;5121078;28;20442;-60
2022/05/06 10:00:45;;;;;;;6.90;3.83;;;21.20;40.00;;;;;;5119643;28;20445;-62
2022/05/06 10:03:13;;;;;;;7.83;3.20;;;21.30;39.70;;;;;;5117491;22;20859;-58
2022/05/06 10:05:40;;;;;;;5.50;4.20;;;21.50;39.50;;;;;;5074623;28;20743;-58
2022/05/06 10:08:13;;;;;;;8.03;4.10;;;21.50;39.20;;;;;;5074583;28;20447;-57
2022/05/06 10:10:45;;;;;;;7.90;4.03;;;21.30;39.00;;;;;;5074471;28;20467;-58
2022/05/06 10:13:16;;;;;;;4.87;4.13;;;21.00;39.10;;;;;;5073361;28;20463;-58
2022/05/06 10:15:48;;;;;;;4.20;3.30;;;20.80;39.30;;;;;;5074100;28;20454;-58
2022/05/06 10:18:32;;;;;;;6.33;4.27;;;20.80;39.30;;;;;;5074098;28;20957;-57
2022/05/06 10:21:00;;;;;;;5.80;4.87;;;21.00;39.10;;;;;;5073824;28;20439;-57
2022/05/06 10:23:54;;;;;;;4.77;4.27;;;21.20;38.70;;;;;;5053819;28;20581;-58
2022/05/06 10:26:41;;;;;;;6.10;3.80;;;21.30;38.50;;;;;;5019269;28;20824;-59
2022/05/06 10:35:10;;;;;;;3.80;3.40;;;21.80;37.90;;;;;;5054093;28;20416;-57
2022/05/06 10:37:38;;;;;;;4.60;3.37;;;21.90;37.70;;;;;;5019212;28;20451;-59
2022/05/06 10:40:32;;;;;;;4.70;4.13;;;21.90;37.70;;;;;;5054064;28;20912;-58
2022/05/06 10:43:00;;;;;;;7.37;4.20;;;22.10;37.70;;;;;;5018182;28;20537;-58
2022/05/06 10:45:29;;;;;;;3.90;3.60;;;22.10;37.70;;;;;;5054018;28;20537;-58
2022/05/06 10:47:59;;;;;;;5.40;4.77;;;22.00;37.80;;;;;;5053420;28;20448;-59
2022/05/06 10:50:29;;;;;;;7.20;4.20;;;22.00;37.90;;;;;;5053036;28;21113;-59
2022/05/06 10:52:57;;;;;;;6.53;3.93;;;22.00;38.00;;;;;;5054310;28;20517;-59
2022/05/06 10:55:26;;;;;;;5.00;3.50;;;22.00;38.10;;;;;;5054578;28;20862;-58
2022/05/06 10:58:02;;;;;;;5.90;3.73;;;22.20;38.10;;;;;;5054094;28;20436;-58
2022/05/06 11:00:30;;;;;;;3.37;3.07;;;22.40;37.70;;;;;;5053553;28;20447;-60
2022/05/06 11:03:00;;;;;;;4.80;3.80;;;22.40;37.20;;;;;;5053826;28;20992;-60
2022/05/06 11:05:29;;;;;;;5.60;3.40;;;22.40;36.80;;;;;;5053666;28;20475;-60
2022/05/06 11:07:59;;;;;;;4.80;3.90;;;22.30;36.90;;;;;;5053241;28;20716;-60
2022/05/06 11:10:28;;;;;;;8.70;3.53;;;22.30;37.00;;;;;;5054019;28;20499;-59
2022/05/06 11:12:57;;;;;;;4.13;3.47;;;22.20;36.80;;;;;;5053528;28;20468;-60
2022/05/06 11:15:26;;;;;;;4.70;3.83;;;22.00;36.90;;;;;;5052878;28;20451;-59
2022/05/06 11:17:56;;;;;;;3.40;2.97;;;21.80;37.10;;;;;;5053433;28;20527;-59
2022/05/06 11:20:27;;;;;;;4.70;2.97;;;21.90;37.40;;;;;;5053866;28;20429;-59
2022/05/06 11:22:59;;;;;;;5.23;4.20;;;22.10;37.10;;;;;;5052918;28;20913;-59
2022/05/06 11:25:28;;;;;;;4.53;3.17;;;22.40;37.00;;;;;;5053582;28;20447;-59
2022/05/06 11:27:57;;;;;;;3.73;3.40;;;22.80;36.80;;;;;;5053057;28;20487;-59
2022/05/06 11:30:25;;;;;;;3.50;2.80;;;22.90;36.50;;;;;;5054261;28;20475;-59
2022/05/06 11:32:55;;;;;;;4.00;2.87;;;22.90;36.40;;;;;;5052223;28;20474;-59
2022/05/06 11:35:36;;;;;;;3.43;3.00;;;22.80;36.50;;;;;;5053053;28;20450;-59
2022/05/06 11:38:04;;;;;;;4.00;3.50;;;22.40;36.90;;;;;;5053037;28;20439;-60
2022/05/06 11:40:34;;;;;;;3.40;3.10;;;22.30;37.30;;;;;;5065761;28;20455;-60
2022/05/06 11:43:02;;;;;;;3.03;2.67;;;22.20;37.50;;;;;;5072795;28;20463;-61
2022/05/06 11:48:15;;;;;;;2.87;2.67;;;22.00;36.70;;;;;;5072207;28;20199;-60
2022/05/06 11:50:44;;;;;;;3.13;2.83;;;22.20;36.20;;;;;;5072763;28;20528;-61
2022/05/06 11:53:13;;;;;;;3.97;3.00;;;22.70;35.90;;;;;;5072813;28;20979;-59
2022/05/06 11:55:43;;;;;;;3.00;2.80;;;23.60;35.30;;;;;;5072362;28;20456;-59
2022/05/06 11:58:14;;;;;;;4.30;3.33;;;24.50;34.30;;;;;;5072927;28;20812;-59
2022/05/06 12:00:42;;;;;;;3.80;2.80;;;25.30;33.20;;;;;;5038157;28;20439;-59
2022/05/06 12:03:11;;;;;;;3.80;3.00;;;25.70;32.00;;;;;;5052437;28;20472;-61
2022/05/06 12:05:39;;;;;;;4.60;3.40;;;25.90;31.30;;;;;;5052770;28;20440;-58
2022/05/06 12:08:08;;;;;;;3.73;2.83;;;25.70;30.90;;;;;;5052934;28;20444;-59
2022/05/06 12:10:37;;;;;;;3.20;2.50;;;25.20;31.50;;;;;;5051898;28;21009;-60
2022/05/06 12:13:08;;;;;;;3.80;2.57;;;24.60;32.20;;;;;;5052838;28;20471;-59
2022/05/06 12:15:38;;;;;;;6.23;2.60;;;24.10;32.80;;;;;;5052810;28;20425;-58
2022/05/06 12:18:09;;;;;;;5.13;3.00;;;24.30;32.70;;;;;;5051849;28;20448;-59
2022/05/06 12:20:37;;;;;;;5.63;2.90;;;24.80;31.90;;;;;;5052145;28;20983;-59
2022/05/06 12:23:07;;;;;;;3.95;2.60;;;25.50;31.30;;;;;;5051614;28;20867;-60
2022/05/06 12:25:36;;;;;;;3.57;2.43;;;26.00;30.00;;;;;;5052601;28;20208;-59
2022/05/06 12:28:15;;;;;;;4.57;3.03;;;26.10;29.70;;;;;;5051554;28;20523;-59
2022/05/06 12:30:44;;;;;;;2.70;2.00;;;25.70;29.80;;;;;;5055068;28;20471;-59
2022/05/06 12:33:13;;;;;;;4.53;2.00;;;25.10;30.10;;;;;;5056474;28;20491;-60
2022/05/06 12:35:56;;;;;;;4.80;2.10;;;24.60;30.90;;;;;;5055277;28;20983;-60
2022/05/06 12:38:26;;;;;;;4.07;2.60;;;24.00;31.80;;;;;;5056041;28;20447;-59
2022/05/06 12:40:54;;;;;;;3.60;2.90;;;23.50;32.30;;;;;;5056142;28;20985;-60
2022/05/06 12:43:28;;;;;;;3.10;2.50;;;23.10;32.90;;;;;;5055880;28;20474;-59
2022/05/06 12:45:56;;;;;;;4.57;2.60;;;22.80;33.40;;;;;;5055707;28;20444;-60
2022/05/06 12:51:08;;;;;;;4.93;2.50;;;23.00;33.30;;;;;;5056918;28;20471;-60
2022/05/06 12:53:37;;;;;;;4.73;2.90;;;23.30;32.80;;;;;;5055893;28;20467;-60
2022/05/06 12:56:05;;;;;;;5.23;2.83;;;23.40;32.20;;;;;;5056504;28;20456;-60
2022/05/06 12:58:32;;;;;;;6.63;2.60;;;23.50;32.00;;;;;;5056793;28;20478;-61
2022/05/06 13:01:01;;;;;;;4.13;2.47;;;23.50;31.90;;;;;;5056716;28;20853;-60
2022/05/06 13:03:29;;;;;;;6.90;3.07;;;23.30;32.10;;;;;;5056013;28;20479;-60
2022/05/06 13:05:56;;;;;;;6.93;2.80;;;23.20;32.40;;;;;;5055278;28;20455;-60
2022/05/06 13:08:24;;;;;;;3.60;2.60;;;23.10;32.60;;;;;;5055840;28;20825;-62
2022/05/06 13:10:53;;;;;;;3.03;2.13;;;22.80;32.50;;;;;;5055763;28;20486;-60
2022/05/06 13:13:20;;;;;;;4.20;3.00;;;22.60;32.70;;;;;;5056173;28;20479;-62
2022/05/06 13:15:47;;;;;;;3.50;2.97;;;22.50;32.90;;;;;;5055473;28;20451;-60
2022/05/06 13:18:15;;;;;;;2.83;2.43;;;22.60;32.90;;;;;;5056633;28;20451;-60
2022/05/06 13:20:44;;;;;;;2.93;2.53;;;22.60;32.90;;;;;;5056036;28;20440;-60
2022/05/06 13:23:11;;;;;;;6.03;3.27;;;22.70;33.00;;;;;;5055942;28;20880;-60
2022/05/06 13:25:38;;;;;;;3.73;3.10;;;22.90;33.10;;;;;;5056262;28;20454;-60
2022/05/06 13:28:06;;;;;;;4.20;3.00;;;23.10;32.90;;;;;;5055664;28;20447;-60
2022/05/06 13:30:33;;;;;;;3.63;2.80;;;23.10;32.60;;;;;;5055837;28;20837;-59
2022/05/06 13:33:01;;;;;;;4.40;2.23;;;23.00;32.70;;;;;;5055640;28;20884;-59
2022/05/06 13:35:28;;;;;;;3.13;2.83;;;23.00;32.80;;;;;;5055681;28;20450;-59
2022/05/06 13:37:55;;;;;;;3.50;3.20;;;22.90;32.70;;;;;;5056038;28;20447;-59
2022/05/06 13:40:23;;;;;;;2.80;2.60;;;22.90;32.30;;;;;;5055080;28;20800;-60
2022/05/06 13:42:50;;;;;;;4.60;2.33;;;22.90;31.90;;;;;;5054926;28;20460;-60